createdAt,value
2022-10-18T00:00:23.871Z,22.58
2022-10-18T00:03:26.440Z,23.20
2022-10-18T00:06:28.639Z,24.70
2022-10-18T00:09:30.979Z,25.35
2022-10-18T00:12:36.849Z,26.33
2022-10-18T00:15:39.428Z,26.35
2022-10-18T00:18:42.196Z,26.40
2022-10-18T00:24:51.748Z,25.45
2022-10-18T00:27:53.904Z,25.73
2022-10-18T00:30:56.264Z,24.98
2022-10-18T00:34:00.896Z,23.23
2022-10-18T00:37:03.902Z,22.80
2022-10-18T00:40:07.511Z,23.08
2022-10-18T00:43:16.236Z,25.75
2022-10-18T00:46:19.335Z,22.48
2022-10-18T00:49:25.596Z,23.70
2022-10-18T00:52:37.601Z,20.40
2022-10-18T00:55:40.483Z,21.77
2022-10-18T00:58:43.682Z,21.55
2022-10-18T01:01:47.604Z,20.17
2022-10-18T01:04:50.790Z,19.07
2022-10-18T01:08:08.834Z,19.37
2022-10-18T01:11:36.509Z,19.02
2022-10-18T01:14:55.474Z,19.98
2022-10-18T01:18:18.326Z,17.92
2022-10-18T01:21:27.461Z,20.77
2022-10-18T01:24:50.803Z,19.67
2022-10-18T01:28:13.416Z,22.55
2022-10-18T01:31:21.431Z,23.42
2022-10-18T01:34:26.877Z,22.73
2022-10-18T01:37:30.353Z,21.10
2022-10-18T01:40:33.679Z,22.20
2022-10-18T01:43:37.028Z,20.90
2022-10-18T01:46:40.054Z,21.10
2022-10-18T01:49:42.381Z,20.17
2022-10-18T01:52:49.753Z,21.00
2022-10-18T01:56:05.508Z,20.87
2022-10-18T01:59:29.005Z,20.80
2022-10-18T02:03:03.377Z,20.17
2022-10-18T02:06:13.340Z,20.70
2022-10-18T02:09:20.709Z,20.70
2022-10-18T02:12:23.076Z,21.07
2022-10-18T02:15:31.361Z,20.65
2022-10-18T02:18:37.281Z,19.73
2022-10-18T02:21:41.414Z,19.70
2022-10-18T02:24:48.812Z,21.90
2022-10-18T02:27:51.804Z,19.50
2022-10-18T02:31:12.438Z,19.42
2022-10-18T02:34:27.832Z,18.65
2022-10-18T02:37:33.727Z,18.05
2022-10-18T02:40:36.085Z,18.07
2022-10-18T02:43:38.322Z,19.50
2022-10-18T02:46:41.016Z,17.95
2022-10-18T02:49:43.118Z,16.98
2022-10-18T02:52:45.276Z,17.75
2022-10-18T02:55:47.408Z,16.87
2022-10-18T02:58:49.532Z,17.03
2022-10-18T03:01:51.706Z,16.35
2022-10-18T03:04:53.949Z,16.13
2022-10-18T03:07:59.487Z,18.05
2022-10-18T03:11:01.689Z,16.63
2022-10-18T03:14:03.838Z,17.23
2022-10-18T03:17:05.983Z,17.58
2022-10-18T03:20:08.526Z,16.33
2022-10-18T03:23:10.700Z,16.95
2022-10-18T03:26:12.918Z,16.60
2022-10-18T03:29:15.168Z,16.10
2022-10-18T03:32:17.284Z,15.70
2022-10-18T03:35:19.390Z,15.63
2022-10-18T03:38:21.559Z,16.55
2022-10-18T03:41:23.746Z,15.93
2022-10-18T03:44:25.904Z,17.50
2022-10-18T03:47:28.130Z,17.55
2022-10-18T03:50:30.281Z,16.55
2022-10-18T03:53:32.418Z,16.63
2022-10-18T03:56:34.665Z,18.03
2022-10-18T03:59:36.833Z,17.17
2022-10-18T04:02:39.119Z,16.15
2022-10-18T04:05:41.309Z,16.17
2022-10-18T04:08:43.429Z,15.63
2022-10-18T04:11:45.534Z,15.90
2022-10-18T04:14:47.670Z,16.50
2022-10-18T04:17:49.836Z,15.13
2022-10-18T04:20:52.054Z,15.18
2022-10-18T04:23:54.223Z,15.05
2022-10-18T04:26:56.314Z,15.80
2022-10-18T04:29:59.009Z,15.93
2022-10-18T04:33:02.519Z,15.30
2022-10-18T04:36:06.430Z,16.02
2022-10-18T04:39:09.427Z,17.05
2022-10-18T04:42:12.521Z,16.57
2022-10-18T04:45:15.611Z,16.27
2022-10-18T04:48:19.015Z,17.08
2022-10-18T04:51:22.005Z,16.30
2022-10-18T04:54:26.598Z,16.00
2022-10-18T04:57:31.889Z,16.17
2022-10-18T05:00:39.209Z,15.53
2022-10-18T05:03:43.179Z,17.55
2022-10-18T05:06:46.481Z,18.20
2022-10-18T05:09:49.468Z,17.65
2022-10-18T05:12:52.594Z,18.40
2022-10-18T05:15:56.168Z,17.27
2022-10-18T05:18:59.274Z,18.05
2022-10-18T05:22:02.054Z,20.17
2022-10-18T05:25:05.447Z,20.55
2022-10-18T05:28:10.755Z,20.33
2022-10-18T05:31:24.332Z,19.20
2022-10-18T05:34:27.840Z,20.25
2022-10-18T05:37:30.933Z,19.45
2022-10-18T05:40:34.334Z,20.40
2022-10-18T05:43:37.425Z,20.43
2022-10-18T05:46:40.418Z,21.27
2022-10-18T05:49:43.500Z,21.25
2022-10-18T05:52:46.396Z,21.00
2022-10-18T05:55:49.285Z,20.70
2022-10-18T05:58:52.692Z,20.87
2022-10-18T06:01:55.672Z,24.70
2022-10-18T06:04:58.767Z,28.13
2022-10-18T06:08:02.531Z,28.90
2022-10-18T06:11:17.450Z,28.50
2022-10-18T06:14:20.744Z,24.37
2022-10-18T06:17:24.618Z,19.37
2022-10-18T06:20:29.289Z,17.70
2022-10-18T06:23:31.886Z,16.23
2022-10-18T06:26:34.063Z,14.77
2022-10-18T06:29:36.983Z,14.37
2022-10-18T06:32:39.084Z,12.83
2022-10-18T06:35:41.235Z,13.18
2022-10-18T06:38:43.538Z,14.02
2022-10-18T06:41:45.703Z,13.60
2022-10-18T06:44:56.391Z,13.33
2022-10-18T06:47:58.686Z,12.60
2022-10-18T06:51:03.603Z,13.45
2022-10-18T06:54:17.417Z,12.80
2022-10-18T06:57:21.345Z,13.68
2022-10-18T07:00:23.641Z,14.03
2022-10-18T07:03:26.362Z,13.43
2022-10-18T07:06:28.623Z,13.48
2022-10-18T07:09:31.501Z,14.10
2022-10-18T07:12:34.909Z,13.82
2022-10-18T07:15:38.850Z,13.90
2022-10-18T07:18:44.163Z,13.63
2022-10-18T07:21:46.571Z,13.27
2022-10-18T07:24:48.724Z,13.73
2022-10-18T07:27:51.027Z,13.25
2022-10-18T07:30:53.177Z,13.30
2022-10-18T07:33:55.435Z,13.70
2022-10-18T07:36:57.999Z,14.23
2022-10-18T07:40:00.181Z,14.50
2022-10-18T07:43:04.672Z,14.68
2022-10-18T07:46:07.256Z,14.60
2022-10-18T07:49:09.401Z,14.53
2022-10-18T07:52:11.816Z,13.15
2022-10-18T07:55:14.094Z,13.50
2022-10-18T07:58:16.258Z,14.48
2022-10-18T08:01:19.341Z,14.00
2022-10-18T08:04:21.514Z,13.10
2022-10-18T08:07:23.699Z,13.45
2022-10-18T08:10:25.875Z,12.52
2022-10-18T08:13:28.050Z,13.02
2022-10-18T08:19:34.802Z,12.93
2022-10-18T08:22:36.906Z,13.02
2022-10-18T08:25:39.252Z,12.55
2022-10-18T08:28:46.160Z,12.30
2022-10-18T08:32:01.652Z,12.13
2022-10-18T08:35:06.951Z,12.87
2022-10-18T08:38:17.982Z,12.35
2022-10-18T08:41:39.500Z,12.70
2022-10-18T08:44:47.455Z,12.25
2022-10-18T08:47:52.062Z,12.13
2022-10-18T08:50:56.394Z,12.20
2022-10-18T08:54:06.215Z,14.70
2022-10-18T08:57:14.915Z,13.63
2022-10-18T09:00:22.447Z,14.35
2022-10-18T09:03:44.493Z,14.07
2022-10-18T09:07:02.971Z,13.27
2022-10-18T09:10:26.542Z,13.25
2022-10-18T09:13:46.605Z,11.73
2022-10-18T09:16:54.792Z,12.45
2022-10-18T09:20:05.815Z,12.00
2022-10-18T09:23:21.218Z,11.70
2022-10-18T09:26:24.718Z,12.10
2022-10-18T09:29:51.900Z,11.35
2022-10-18T09:33:18.459Z,11.82
2022-10-18T09:36:23.183Z,12.33
2022-10-18T09:39:30.763Z,12.30
2022-10-18T09:42:51.980Z,11.80
2022-10-18T09:45:54.669Z,11.43
2022-10-18T09:49:17.441Z,11.30
2022-10-18T09:52:32.778Z,11.50
2022-10-18T09:55:40.924Z,11.03
2022-10-18T09:58:44.589Z,10.00
2022-10-18T10:01:46.893Z,9.55
2022-10-18T10:04:50.046Z,11.02
2022-10-18T10:07:58.656Z,9.87
2022-10-18T10:11:01.272Z,9.33
2022-10-18T10:14:12.485Z,8.63
2022-10-18T10:17:24.225Z,8.38
2022-10-18T10:20:46.550Z,7.90
2022-10-18T10:23:54.893Z,7.70
2022-10-18T10:27:02.544Z,7.07
2022-10-18T10:30:22.790Z,6.55
2022-10-18T10:33:38.605Z,6.05
2022-10-18T10:36:49.525Z,6.20
2022-10-18T10:40:28.774Z,6.10
2022-10-18T10:43:39.367Z,5.57
2022-10-18T10:46:42.050Z,5.80
2022-10-18T10:49:46.959Z,6.00
2022-10-18T10:52:49.158Z,5.50
2022-10-18T10:55:54.405Z,5.23
2022-10-18T10:59:01.859Z,5.73
2022-10-18T11:02:37.093Z,5.78
2022-10-18T11:05:53.150Z,5.68
2022-10-18T11:09:09.565Z,5.60
2022-10-18T11:12:18.732Z,5.67
2022-10-18T11:16:01.043Z,5.67
2022-10-18T11:19:28.466Z,5.10
2022-10-18T11:23:03.974Z,5.50
2022-10-18T11:26:12.052Z,5.20
2022-10-18T11:30:07.417Z,5.27
2022-10-18T11:34:03.494Z,4.93
2022-10-18T11:37:30.284Z,5.00
2022-10-18T11:41:11.857Z,4.88
2022-10-18T11:44:22.669Z,4.72
2022-10-18T11:47:55.816Z,4.90
2022-10-18T11:51:15.842Z,4.67
2022-10-18T11:54:56.824Z,4.30
2022-10-18T11:58:23.190Z,4.40
2022-10-18T12:01:43.561Z,4.10
2022-10-18T12:04:58.541Z,4.47
2022-10-18T12:08:33.170Z,4.40
2022-10-18T12:11:47.240Z,4.20
2022-10-18T12:14:59.640Z,4.13
2022-10-18T12:18:06.304Z,4.50
2022-10-18T12:21:08.516Z,4.40
2022-10-18T12:24:21.759Z,4.40
2022-10-18T12:27:32.979Z,4.57
2022-10-18T12:31:17.646Z,4.30
2022-10-18T12:34:22.383Z,4.50
2022-10-18T12:37:45.771Z,4.20
2022-10-18T12:40:54.057Z,4.30
2022-10-18T12:44:16.546Z,4.45
2022-10-18T12:47:24.014Z,4.20
2022-10-18T12:50:38.754Z,4.63
2022-10-18T12:53:42.397Z,4.50
2022-10-18T12:56:46.772Z,4.80
2022-10-18T12:59:49.005Z,4.20
2022-10-18T13:03:14.316Z,4.85
2022-10-18T13:06:16.494Z,4.15
2022-10-18T13:09:21.242Z,4.53
2022-10-18T13:12:23.363Z,4.40
2022-10-18T13:15:43.678Z,4.40
2022-10-18T13:18:58.499Z,4.50
2022-10-18T13:22:28.529Z,4.53
2022-10-18T13:25:54.999Z,4.70
2022-10-18T13:29:31.440Z,4.00
2022-10-18T13:33:02.846Z,4.72
2022-10-18T13:36:22.579Z,4.63
2022-10-18T13:39:26.181Z,4.80
2022-10-18T13:42:31.844Z,4.40
2022-10-18T13:45:34.368Z,4.20
2022-10-18T13:48:36.514Z,4.03
2022-10-18T13:51:50.022Z,4.68
2022-10-18T13:55:30.457Z,4.97
2022-10-18T13:59:05.723Z,4.07
2022-10-18T14:02:50.942Z,4.80
2022-10-18T14:06:02.083Z,4.38
2022-10-18T14:09:26.076Z,4.30
2022-10-18T14:12:39.091Z,4.20
2022-10-18T14:15:44.232Z,4.23
2022-10-18T14:18:48.144Z,4.53
2022-10-18T14:21:59.122Z,4.60
2022-10-18T14:25:02.522Z,4.28
2022-10-18T14:28:10.113Z,4.03
2022-10-18T14:31:16.367Z,4.90
2022-10-18T14:34:18.573Z,4.30
2022-10-18T14:37:27.567Z,4.50
2022-10-18T14:40:34.856Z,4.10
2022-10-18T14:43:37.110Z,4.40
2022-10-18T14:46:44.137Z,4.30
2022-10-18T14:49:46.883Z,4.53
2022-10-18T14:52:49.469Z,4.57
2022-10-18T14:55:55.798Z,4.15
2022-10-18T14:59:00.723Z,4.47
2022-10-18T15:02:12.429Z,4.60
2022-10-18T15:05:25.242Z,3.93
2022-10-18T15:08:35.908Z,4.47
2022-10-18T15:11:41.254Z,4.43
2022-10-18T15:14:43.819Z,4.30
2022-10-18T15:17:48.302Z,4.47
2022-10-18T15:21:21.102Z,4.73
2022-10-18T15:24:26.336Z,4.90
2022-10-18T15:27:36.794Z,4.45
2022-10-18T15:30:42.865Z,4.43
2022-10-18T15:33:45.362Z,4.57
2022-10-18T15:36:49.609Z,4.90
2022-10-18T15:40:31.853Z,4.72
2022-10-18T15:43:39.995Z,4.65
2022-10-18T15:46:42.457Z,4.65
2022-10-18T15:49:56.563Z,5.17
2022-10-18T15:53:21.763Z,4.97
2022-10-18T15:56:37.003Z,5.10
2022-10-18T16:00:15.587Z,5.22
2022-10-18T16:03:19.133Z,5.63
2022-10-18T16:06:21.530Z,5.47
2022-10-18T16:09:25.279Z,6.30
2022-10-18T16:12:27.447Z,5.60
2022-10-18T16:15:29.704Z,7.20
2022-10-18T16:18:31.789Z,6.80
2022-10-18T16:21:41.149Z,9.40
2022-10-18T16:24:43.417Z,19.40
2022-10-18T16:27:45.661Z,11.32
2022-10-18T16:30:54.249Z,9.73
2022-10-18T16:33:57.027Z,10.60
2022-10-18T16:36:59.396Z,13.03
2022-10-18T16:40:21.574Z,29.43
2022-10-18T16:43:24.462Z,12.13
2022-10-18T16:46:29.881Z,10.63
2022-10-18T16:49:33.288Z,9.85
2022-10-18T16:52:35.845Z,7.80
2022-10-18T16:55:39.373Z,9.70
2022-10-18T16:58:42.035Z,9.57
2022-10-18T17:01:44.396Z,9.60
2022-10-18T17:04:46.576Z,10.25
2022-10-18T17:07:49.392Z,10.47
2022-10-18T17:10:54.534Z,14.63
2022-10-18T17:13:56.731Z,13.48
2022-10-18T17:16:59.271Z,14.35
2022-10-18T17:20:01.954Z,14.45
2022-10-18T17:23:04.468Z,15.13
2022-10-18T17:26:29.429Z,14.33
2022-10-18T17:29:32.810Z,15.25
2022-10-18T17:32:35.719Z,16.35
2022-10-18T17:35:38.758Z,15.40
2022-10-18T17:38:41.239Z,13.37
2022-10-18T17:41:43.851Z,15.57
2022-10-18T17:44:46.296Z,12.88
2022-10-18T17:47:48.830Z,12.80
2022-10-18T17:50:53.414Z,12.35
2022-10-18T17:53:56.254Z,12.20
2022-10-18T17:56:58.948Z,12.83
2022-10-18T18:00:03.233Z,15.68
2022-10-18T18:03:17.092Z,13.50
2022-10-18T18:06:31.435Z,17.08
2022-10-18T18:09:34.272Z,14.53
2022-10-18T18:12:36.861Z,13.00
2022-10-18T18:15:39.518Z,12.70
2022-10-18T18:18:43.461Z,12.57
2022-10-18T18:21:45.730Z,12.40
2022-10-18T18:24:48.327Z,12.00
2022-10-18T18:27:51.577Z,19.40
2022-10-18T18:30:54.264Z,21.88
2022-10-18T18:33:58.342Z,18.45
2022-10-18T18:37:00.950Z,22.23
2022-10-18T18:40:03.912Z,19.47
2022-10-18T18:43:12.373Z,18.90
2022-10-18T18:46:27.504Z,20.33
2022-10-18T18:49:31.719Z,18.85
2022-10-18T18:52:34.693Z,18.70
2022-10-18T18:55:40.127Z,14.37
2022-10-18T18:58:45.229Z,18.07
2022-10-18T19:01:50.936Z,18.17
2022-10-18T19:04:53.802Z,19.63
2022-10-18T19:07:55.980Z,19.67
2022-10-18T19:10:58.633Z,21.77
2022-10-18T19:14:02.295Z,18.40
2022-10-18T19:17:08.251Z,18.80
2022-10-18T19:20:12.925Z,18.35
2022-10-18T19:23:16.585Z,17.98
2022-10-18T19:26:37.537Z,15.37
2022-10-18T19:29:40.768Z,16.87
2022-10-18T19:32:43.399Z,16.05
2022-10-18T19:35:46.258Z,15.77
2022-10-18T19:38:48.541Z,22.05
2022-10-18T19:41:58.678Z,24.87
2022-10-18T19:45:01.376Z,19.70
2022-10-18T19:48:04.151Z,20.83
2022-10-18T19:51:09.403Z,20.77
2022-10-18T19:54:13.876Z,18.38
2022-10-18T19:57:16.599Z,18.33
2022-10-18T20:00:19.766Z,17.10
2022-10-18T20:03:23.807Z,18.55
2022-10-18T20:06:26.734Z,24.08
2022-10-18T20:09:29.285Z,21.38
2022-10-18T20:12:31.701Z,19.37
2022-10-18T20:15:34.016Z,14.70
2022-10-18T20:18:37.045Z,16.42
2022-10-18T20:21:40.017Z,16.60
2022-10-18T20:24:42.449Z,15.73
2022-10-18T20:27:44.726Z,17.73
2022-10-18T20:30:46.895Z,18.47
2022-10-18T20:34:03.049Z,18.88
2022-10-18T20:37:05.175Z,21.35
2022-10-18T20:40:07.989Z,30.95
2022-10-18T20:43:10.130Z,23.40
2022-10-18T20:46:12.304Z,20.57
2022-10-18T20:49:15.984Z,20.17
2022-10-18T20:52:18.126Z,20.23
2022-10-18T20:55:20.368Z,19.95
2022-10-18T20:58:22.516Z,21.00
2022-10-18T21:01:30.202Z,20.80
2022-10-18T21:04:32.452Z,20.88
2022-10-18T21:07:34.918Z,19.63
2022-10-18T21:10:37.269Z,20.70
2022-10-18T21:13:40.968Z,20.37
2022-10-18T21:16:43.842Z,21.40
2022-10-18T21:19:46.008Z,22.13
2022-10-18T21:22:48.468Z,19.85
2022-10-18T21:25:50.567Z,23.50
2022-10-18T21:28:54.367Z,24.00
2022-10-18T21:31:59.450Z,25.23
2022-10-18T21:35:01.703Z,22.83
2022-10-18T21:38:05.012Z,24.02
2022-10-18T21:41:13.594Z,26.17
2022-10-18T21:44:16.444Z,25.57
2022-10-18T21:47:18.652Z,26.80
2022-10-18T21:50:21.732Z,25.33
2022-10-18T21:53:24.027Z,23.00
2022-10-18T21:56:33.891Z,22.90
2022-10-18T21:59:36.742Z,25.83
2022-10-18T22:02:39.127Z,24.07
2022-10-18T22:05:41.303Z,24.38
2022-10-18T22:08:54.780Z,24.52
2022-10-18T22:11:57.210Z,24.65
2022-10-18T22:15:00.398Z,25.00
2022-10-18T22:18:02.570Z,22.90
2022-10-18T22:21:06.450Z,24.08
2022-10-18T22:24:09.237Z,23.95
2022-10-18T22:27:11.391Z,24.38
2022-10-18T22:30:13.619Z,25.37
2022-10-18T22:33:15.900Z,24.07
2022-10-18T22:36:18.083Z,27.65
2022-10-18T22:39:20.320Z,25.15
2022-10-18T22:42:22.561Z,27.65
2022-10-18T22:45:24.827Z,27.57
2022-10-18T22:48:26.926Z,29.77
2022-10-18T22:51:29.145Z,31.50
2022-10-18T22:54:31.504Z,30.88
2022-10-18T22:57:33.861Z,32.88
2022-10-18T23:03:45.651Z,33.53
2022-10-18T23:06:47.823Z,33.00
2022-10-18T23:09:50.005Z,32.42
2022-10-18T23:12:52.185Z,32.13
2022-10-18T23:16:04.304Z,32.03
2022-10-18T23:19:06.960Z,30.07
2022-10-18T23:22:09.281Z,29.80
2022-10-18T23:25:11.418Z,29.85
2022-10-18T23:28:13.560Z,29.50
2022-10-18T23:31:19.889Z,30.47
2022-10-18T23:34:22.112Z,28.80
2022-10-18T23:37:24.232Z,29.38
2022-10-18T23:40:26.366Z,29.83
2022-10-18T23:43:28.686Z,29.73
2022-10-18T23:46:30.830Z,29.37
2022-10-18T23:49:33.032Z,27.73
2022-10-18T23:52:35.173Z,27.48
2022-10-18T23:55:37.408Z,26.17
2022-10-18T23:58:39.937Z,27.50
